Time;durP1;ratioP1;P1;durP2;ratioP2;P2;SDS_P1;SDS_P2;PMS_P1;PMS_P2;Temp;Humidity;BMP_temperature;BMP_pressure;BME280_temperature;BME280_humidity;BME280_pressure;Samples;Min_cycle;Max_cycle;Signal;HPM_P1;HPM_P2
2021/05/21 00:00:29;;;;;;;2.17;1.50;;;12.00;99.90;;;;;;5056816;28;20086;-85
2021/05/21 00:02:57;;;;;;;4.57;1.13;;;12.00;99.90;;;;;;5059491;28;20040;-85
2021/05/21 00:05:23;;;;;;;2.17;1.17;;;12.00;99.90;;;;;;5058446;28;20047;-85
2021/05/21 00:07:49;;;;;;;4.22;1.15;;;12.00;99.90;;;;;;5058163;28;20040;-85
2021/05/21 00:10:16;;;;;;;3.30;1.02;;;12.00;99.90;;;;;;5025922;28;20040;-85
2021/05/21 00:12:41;;;;;;;5.22;1.10;;;12.10;99.90;;;;;;5077070;28;20048;-85
2021/05/21 00:15:09;;;;;;;4.72;1.13;;;12.10;99.90;;;;;;5060934;28;20128;-85
2021/05/21 00:17:34;;;;;;;3.60;1.45;;;12.00;99.90;;;;;;5075652;28;20036;-85
2021/05/21 00:20:01;;;;;;;5.03;1.27;;;11.90;99.90;;;;;;5056103;28;20093;-86
2021/05/21 00:22:27;;;;;;;3.75;1.23;;;11.80;99.90;;;;;;5063043;28;20105;-85
2021/05/21 00:24:53;;;;;;;1.58;1.08;;;11.80;99.90;;;;;;5046740;28;20032;-85
2021/05/21 00:27:19;;;;;;;7.70;1.85;;;11.80;99.90;;;;;;5048716;28;20079;-86
2021/05/21 00:29:44;;;;;;;5.97;1.80;;;11.70;99.90;;;;;;5051556;28;20043;-85
2021/05/21 00:32:10;;;;;;;9.98;1.90;;;11.50;99.90;;;;;;5077675;28;20040;-84
2021/05/21 00:34:36;;;;;;;5.90;1.52;;;11.40;99.90;;;;;;5067589;28;20127;-85
2021/05/21 00:37:02;;;;;;;4.68;1.08;;;11.30;99.90;;;;;;5062346;28;20028;-86
2021/05/21 00:39:28;;;;;;;6.47;1.35;;;11.20;99.90;;;;;;5097462;28;20059;-86
2021/05/21 00:41:53;;;;;;;15.48;2.63;;;11.10;99.90;;;;;;5053721;28;20045;-87
2021/05/21 00:44:23;;;;;;;6.13;2.70;;;11.10;99.90;;;;;;5062770;28;20075;-86
2021/05/21 00:46:49;;;;;;;6.43;2.30;;;10.90;99.90;;;;;;5054374;28;20079;-86
2021/05/21 00:49:18;;;;;;;5.00;2.47;;;10.90;99.90;;;;;;5054482;28;20032;-86
2021/05/21 00:51:47;;;;;;;5.03;2.50;;;10.90;99.90;;;;;;5061356;28;20039;-86
2021/05/21 00:54:17;;;;;;;6.03;1.92;;;10.90;99.90;;;;;;5080832;28;20036;-86
2021/05/21 00:56:43;;;;;;;6.63;2.08;;;10.90;99.90;;;;;;5076741;28;20397;-86
2021/05/21 00:59:10;;;;;;;6.82;2.00;;;11.00;99.90;;;;;;5046826;28;20024;-85
2021/05/21 01:01:37;;;;;;;9.02;1.98;;;11.00;99.90;;;;;;5052312;28;20036;-86
2021/05/21 01:04:04;;;;;;;9.10;2.13;;;11.00;99.90;;;;;;5063358;28;20040;-86
2021/05/21 01:06:30;;;;;;;7.63;1.95;;;11.00;99.90;;;;;;5078516;28;20031;-86
2021/05/21 01:08:56;;;;;;;10.60;2.00;;;11.10;99.90;;;;;;5044811;28;20063;-86
2021/05/21 01:11:23;;;;;;;12.63;2.05;;;11.10;99.90;;;;;;5078129;28;20036;-86
2021/05/21 01:13:49;;;;;;;11.90;2.28;;;11.00;99.90;;;;;;5095435;28;20039;-86
2021/05/21 01:16:15;;;;;;;19.90;2.55;;;11.00;99.90;;;;;;5064099;28;20032;-86
2021/05/21 01:18:41;;;;;;;21.23;3.20;;;11.00;99.90;;;;;;5061475;28;20040;-86
2021/05/21 01:21:09;;;;;;;20.65;2.83;;;10.80;99.90;;;;;;5077233;28;20081;-86
2021/05/21 01:23:35;;;;;;;27.40;4.07;;;10.70;99.90;;;;;;5094105;28;20060;-86
2021/05/21 01:26:01;;;;;;;25.77;3.83;;;10.50;99.90;;;;;;5044276;28;20074;-86
2021/05/21 01:28:26;;;;;;;19.08;3.40;;;10.40;99.90;;;;;;5064259;28;20025;-87
2021/05/21 01:30:53;;;;;;;21.02;2.65;;;10.40;99.90;;;;;;5047118;28;20033;-86
2021/05/21 01:33:19;;;;;;;22.17;3.22;;;10.30;99.90;;;;;;5076799;28;20043;-86
2021/05/21 01:35:46;;;;;;;27.17;2.97;;;10.30;99.90;;;;;;5029834;28;20040;-86
2021/05/21 01:38:13;;;;;;;27.60;3.60;;;10.30;99.90;;;;;;5059220;28;20052;-86
2021/05/21 01:40:42;;;;;;;21.27;3.15;;;10.30;99.90;;;;;;5076861;28;20040;-86
2021/05/21 01:43:09;;;;;;;30.92;5.35;;;10.30;99.90;;;;;;5076199;28;20063;-86
2021/05/21 01:45:38;;;;;;;20.00;2.80;;;10.30;99.90;;;;;;5058129;28;20498;-86
2021/05/21 01:48:04;;;;;;;30.77;4.25;;;10.20;99.90;;;;;;5045525;28;20048;-86
2021/05/21 01:50:30;;;;;;;25.40;3.55;;;10.20;99.90;;;;;;5041751;28;20029;-86
2021/05/21 01:52:56;;;;;;;24.00;4.20;;;10.10;99.90;;;;;;5049932;28;20492;-86
2021/05/21 01:55:22;;;;;;;22.70;3.45;;;10.10;99.90;;;;;;5044295;28;20072;-86
2021/05/21 01:57:47;;;;;;;22.08;4.00;;;10.10;99.90;;;;;;5064071;28;20132;-86
2021/05/21 02:00:14;;;;;;;29.08;4.05;;;10.10;99.90;;;;;;5049506;28;20505;-86
2021/05/21 02:02:40;;;;;;;26.27;3.58;;;10.10;99.90;;;;;;5043551;28;20040;-86
2021/05/21 02:05:08;;;;;;;27.10;2.95;;;10.10;99.90;;;;;;5062242;28;20048;-86
2021/05/21 02:07:35;;;;;;;24.35;4.50;;;10.00;99.90;;;;;;5063377;28;20032;-86
2021/05/21 02:10:09;;;;;;;24.38;4.18;;;10.00;99.90;;;;;;5076671;28;20067;-86
2021/05/21 02:12:36;;;;;;;20.08;2.97;;;10.00;99.90;;;;;;5062864;28;20035;-86
2021/05/21 02:15:06;;;;;;;26.05;4.47;;;9.90;99.90;;;;;;5061078;28;20032;-86
2021/05/21 02:17:32;;;;;;;20.00;3.05;;;9.90;99.90;;;;;;5062997;28;20028;-85
2021/05/21 02:20:02;;;;;;;21.42;3.00;;;9.90;99.90;;;;;;5063743;28;20449;-86
2021/05/21 02:22:29;;;;;;;18.35;2.25;;;9.90;99.90;;;;;;5061508;28;20038;-86
2021/05/21 02:24:57;;;;;;;26.00;3.10;;;9.80;99.90;;;;;;5075522;28;20546;-85
2021/05/21 02:27:24;;;;;;;22.92;2.55;;;9.70;99.90;;;;;;5061081;28;20052;-86
2021/05/21 02:29:50;;;;;;;23.30;4.05;;;9.70;99.90;;;;;;5060513;28;20035;-86
2021/05/21 02:32:16;;;;;;;21.65;2.60;;;9.70;99.90;;;;;;5044161;28;20489;-86
2021/05/21 02:34:42;;;;;;;24.75;3.15;;;9.70;99.90;;;;;;5075685;28;20500;-85
2021/05/21 02:37:08;;;;;;;23.13;2.97;;;9.70;99.90;;;;;;5059180;28;20463;-85
2021/05/21 02:39:34;;;;;;;21.40;2.97;;;9.80;99.90;;;;;;5058751;28;20110;-85
2021/05/21 02:42:00;;;;;;;18.45;2.65;;;9.70;99.90;;;;;;5052412;28;20048;-86
2021/05/21 02:44:26;;;;;;;25.83;3.95;;;9.70;99.90;;;;;;5056748;28;20036;-85
2021/05/21 02:46:52;;;;;;;22.83;3.85;;;9.70;99.90;;;;;;5090558;28;20039;-85
2021/05/21 02:49:20;;;;;;;18.60;3.13;;;9.70;99.90;;;;;;5056061;28;20028;-86
2021/05/21 02:51:53;;;;;;;26.55;4.03;;;9.80;99.90;;;;;;5047463;28;20035;-86
2021/05/21 02:54:20;;;;;;;21.80;2.95;;;9.80;99.90;;;;;;5077469;28;20036;-86
2021/05/21 02:56:46;;;;;;;26.90;3.80;;;9.80;99.90;;;;;;5049935;28;20040;-86
2021/05/21 02:59:12;;;;;;;28.50;3.42;;;9.70;99.90;;;;;;5065043;28;20036;-86
2021/05/21 03:01:38;;;;;;;23.55;3.63;;;9.70;99.90;;;;;;5060575;28;20041;-86
2021/05/21 03:04:04;;;;;;;30.67;3.58;;;9.70;99.90;;;;;;5049858;28;20094;-86
2021/05/21 03:06:30;;;;;;;30.65;3.50;;;9.70;99.90;;;;;;5073284;28;20043;-86
2021/05/21 03:08:56;;;;;;;26.85;3.78;;;9.70;99.90;;;;;;5074233;28;20116;-86
2021/05/21 03:11:22;;;;;;;40.00;3.72;;;9.70;99.90;;;;;;5034348;28;20048;-85
2021/05/21 03:13:48;;;;;;;27.58;3.45;;;9.70;99.90;;;;;;5052670;28;20031;-86
2021/05/21 03:16:14;;;;;;;27.70;4.18;;;9.70;99.90;;;;;;5056688;28;20047;-86
2021/05/21 03:18:40;;;;;;;33.53;3.85;;;9.70;99.90;;;;;;5076454;28;20039;-85
2021/05/21 03:21:06;;;;;;;23.63;3.60;;;9.70;99.90;;;;;;5055889;28;20029;-86
2021/05/21 03:23:32;;;;;;;33.90;4.15;;;9.70;99.90;;;;;;5058645;28;20075;-86
2021/05/21 03:25:58;;;;;;;27.80;3.90;;;9.70;99.90;;;;;;5056979;28;20033;-86
2021/05/21 03:28:24;;;;;;;30.73;4.18;;;9.60;99.90;;;;;;5051044;28;20150;-86
2021/05/21 03:30:50;;;;;;;26.42;3.40;;;9.60;99.90;;;;;;5074948;28;20028;-86
2021/05/21 03:33:16;;;;;;;24.95;3.70;;;9.60;99.90;;;;;;5072898;28;20428;-86
2021/05/21 03:35:43;;;;;;;35.38;3.47;;;9.60;99.90;;;;;;5050975;28;20102;-86
2021/05/21 03:38:09;;;;;;;36.35;4.45;;;9.60;99.90;;;;;;5037216;28;20047;-85
2021/05/21 03:40:37;;;;;;;32.20;4.88;;;9.60;99.90;;;;;;5027651;28;20114;-86
2021/05/21 03:43:04;;;;;;;28.45;3.65;;;9.50;99.90;;;;;;5071630;28;20372;-86
2021/05/21 03:45:33;;;;;;;33.40;5.30;;;9.50;99.90;;;;;;5037493;28;20483;-86
2021/05/21 03:47:59;;;;;;;30.17;4.32;;;9.50;99.90;;;;;;5088347;28;20040;-86
2021/05/21 03:50:25;;;;;;;38.88;4.88;;;9.50;99.90;;;;;;5069598;28;20032;-86
2021/05/21 03:52:50;;;;;;;34.90;3.90;;;9.60;99.90;;;;;;5054178;28;20044;-86
2021/05/21 03:55:18;;;;;;;35.28;4.60;;;9.50;99.90;;;;;;5069749;28;20036;-86
2021/05/21 03:57:44;;;;;;;29.30;3.90;;;9.50;99.90;;;;;;5063083;28;20040;-86
2021/05/21 04:00:17;;;;;;;27.48;3.45;;;9.50;99.90;;;;;;5060652;28;20543;-84
2021/05/21 04:02:43;;;;;;;38.17;4.57;;;9.50;99.90;;;;;;5069777;28;20044;-84
2021/05/21 04:05:09;;;;;;;28.50;3.58;;;9.50;99.90;;;;;;5070563;28;20051;-84
2021/05/21 04:07:35;;;;;;;36.40;5.15;;;9.60;99.90;;;;;;5038782;28;20491;-84
2021/05/21 04:10:01;;;;;;;32.92;4.93;;;9.60;99.90;;;;;;5057177;28;20517;-84
2021/05/21 04:12:28;;;;;;;36.60;5.57;;;9.60;99.90;;;;;;5073213;28;20097;-84
2021/05/21 04:14:55;;;;;;;34.33;5.40;;;9.70;99.90;;;;;;5047844;28;20560;-84
2021/05/21 04:17:21;;;;;;;34.17;5.70;;;9.80;99.90;;;;;;5088040;28;20036;-84
2021/05/21 04:19:47;;;;;;;39.25;4.90;;;9.80;99.90;;;;;;5069435;28;20032;-84
2021/05/21 04:22:13;;;;;;;35.38;5.22;;;9.90;99.90;;;;;;5080333;28;20047;-84
2021/05/21 04:24:40;;;;;;;32.97;4.70;;;9.90;99.90;;;;;;5063196;28;20101;-84
2021/05/21 04:27:06;;;;;;;35.40;5.57;;;9.90;99.90;;;;;;5070170;28;20040;-84
2021/05/21 04:29:32;;;;;;;31.65;4.22;;;10.00;99.90;;;;;;5069197;28;20036;-84
2021/05/21 04:31:58;;;;;;;33.63;5.22;;;10.10;99.90;;;;;;5069800;28;20388;-84
2021/05/21 04:34:24;;;;;;;42.55;6.97;;;10.20;99.90;;;;;;5060846;28;20105;-84
2021/05/21 04:36:50;;;;;;;44.58;5.03;;;10.10;99.90;;;;;;5054175;28;20070;-84
2021/05/21 04:39:16;;;;;;;38.20;5.75;;;10.10;99.90;;;;;;5068469;28;20052;-84
2021/05/21 04:41:42;;;;;;;33.95;5.50;;;10.10;99.90;;;;;;5036729;28;20085;-84
2021/05/21 04:44:08;;;;;;;35.63;5.38;;;10.10;99.90;;;;;;5053366;28;20036;-85
2021/05/21 04:46:34;;;;;;;34.10;5.60;;;10.10;99.90;;;;;;5069666;28;20028;-85
2021/05/21 04:49:00;;;;;;;33.58;5.03;;;10.10;99.90;;;;;;5069391;28;20452;-84
2021/05/21 04:51:26;;;;;;;36.80;7.32;;;10.00;99.90;;;;;;5052204;28;20044;-84
2021/05/21 04:53:51;;;;;;;30.33;4.28;;;10.10;99.90;;;;;;5069670;28;20502;-83
2021/05/21 04:56:18;;;;;;;43.67;5.78;;;10.10;99.90;;;;;;5065049;28;20501;-84
2021/05/21 04:58:45;;;;;;;35.78;6.10;;;10.20;99.90;;;;;;5087458;28;20046;-84
2021/05/21 05:01:11;;;;;;;26.27;4.32;;;10.20;99.90;;;;;;5086277;28;20036;-84
2021/05/21 05:03:37;;;;;;;37.45;5.57;;;10.30;99.90;;;;;;5069735;28;20131;-84
2021/05/21 05:06:03;;;;;;;43.55;5.80;;;10.30;99.90;;;;;;5049858;28;20119;-84
2021/05/21 05:08:29;;;;;;;29.25;4.57;;;10.30;99.90;;;;;;5051274;28;20047;-84
2021/05/21 05:10:55;;;;;;;26.20;4.78;;;10.40;99.90;;;;;;5033062;28;20535;-84
2021/05/21 05:13:21;;;;;;;27.80;4.57;;;10.40;99.90;;;;;;5083136;28;20050;-84
2021/05/21 05:15:48;;;;;;;27.80;4.32;;;10.50;99.90;;;;;;5070404;28;20036;-84
2021/05/21 05:18:14;;;;;;;26.70;4.70;;;10.50;99.90;;;;;;5056956;28;20073;-84
2021/05/21 05:20:40;;;;;;;27.70;4.30;;;10.50;99.90;;;;;;5071534;28;20495;-84
2021/05/21 05:23:11;;;;;;;30.73;5.18;;;10.60;99.90;;;;;;5073728;28;20104;-84
2021/05/21 05:25:41;;;;;;;22.25;3.60;;;10.60;99.90;;;;;;5059138;28;20044;-84
2021/05/21 05:28:07;;;;;;;33.78;4.80;;;10.60;99.90;;;;;;5072655;28;20039;-84
2021/05/21 05:30:32;;;;;;;27.27;4.10;;;10.70;99.90;;;;;;5054349;28;20101;-84
2021/05/21 05:32:58;;;;;;;25.27;3.63;;;10.70;99.90;;;;;;5036046;28;20470;-84
2021/05/21 05:35:24;;;;;;;33.85;5.60;;;10.70;99.90;;;;;;5055999;28;20475;-84
2021/05/21 05:37:50;;;;;;;27.20;3.60;;;10.70;99.90;;;;;;5055881;28;20133;-84
2021/05/21 05:40:16;;;;;;;27.35;4.28;;;10.70;99.90;;;;;;5038239;28;20039;-84
2021/05/21 05:42:42;;;;;;;23.45;3.63;;;10.70;99.90;;;;;;5071225;28;20036;-84
2021/05/21 05:45:09;;;;;;;23.58;3.70;;;10.70;99.90;;;;;;5055641;28;20036;-84
2021/05/21 05:47:34;;;;;;;29.25;4.95;;;10.70;99.90;;;;;;5072376;28;20494;-84
2021/05/21 05:50:00;;;;;;;29.85;4.05;;;10.70;99.90;;;;;;5054597;28;20035;-84
2021/05/21 05:52:26;;;;;;;24.60;4.05;;;10.80;99.90;;;;;;5054904;28;20426;-84
2021/05/21 05:54:52;;;;;;;29.05;3.97;;;10.80;99.90;;;;;;5036578;28;20043;-84
2021/05/21 05:57:18;;;;;;;25.90;4.50;;;10.80;99.90;;;;;;5054027;28;20032;-84
2021/05/21 05:59:44;;;;;;;26.15;3.53;;;10.90;99.90;;;;;;5054299;28;20048;-84
2021/05/21 06:02:10;;;;;;;27.73;3.95;;;11.00;99.90;;;;;;5054692;28;20110;-84
2021/05/21 06:04:36;;;;;;;26.60;4.40;;;11.10;99.90;;;;;;5055720;28;20126;-84
2021/05/21 06:07:02;;;;;;;25.65;3.85;;;11.10;99.90;;;;;;5050741;28;20503;-84
2021/05/21 06:09:28;;;;;;;29.17;4.38;;;11.10;99.90;;;;;;5045262;28;20067;-84
2021/05/21 06:11:57;;;;;;;29.13;3.80;;;11.10;99.90;;;;;;5038309;28;20507;-84
2021/05/21 06:14:24;;;;;;;26.15;4.60;;;11.10;99.90;;;;;;5071211;28;20032;-84
2021/05/21 06:16:50;;;;;;;23.98;3.65;;;11.10;99.90;;;;;;5055551;28;20492;-84
2021/05/21 06:19:15;;;;;;;29.13;4.53;;;11.00;99.90;;;;;;5051400;28;20097;-84
2021/05/21 06:21:42;;;;;;;24.00;4.35;;;11.00;99.90;;;;;;5071639;28;20422;-84
2021/05/21 06:24:09;;;;;;;27.52;4.40;;;11.00;99.90;;;;;;5039694;28;20033;-84
2021/05/21 06:26:39;;;;;;;27.60;4.57;;;11.00;99.90;;;;;;5102890;28;20031;-84
2021/05/21 06:29:05;;;;;;;21.85;4.00;;;11.00;99.90;;;;;;5071761;28;20068;-83
2021/05/21 06:31:31;;;;;;;24.38;4.90;;;11.00;99.90;;;;;;5053166;28;20032;-84
2021/05/21 06:33:57;;;;;;;23.10;4.10;;;11.00;99.90;;;;;;5054376;28;20537;-84
2021/05/21 06:36:23;;;;;;;22.40;4.38;;;11.00;99.90;;;;;;5055039;28;20043;-83
2021/05/21 06:38:49;;;;;;;26.23;4.05;;;11.00;99.90;;;;;;5054831;28;20494;-84
2021/05/21 06:41:15;;;;;;;19.20;3.30;;;11.10;99.90;;;;;;5036529;28;20047;-83
2021/05/21 06:43:41;;;;;;;24.83;5.55;;;11.20;99.90;;;;;;5055004;28;20479;-84
2021/05/21 06:46:06;;;;;;;29.45;4.05;;;11.30;99.90;;;;;;5034602;28;20057;-85
2021/05/21 06:48:32;;;;;;;27.40;5.32;;;11.40;99.90;;;;;;5050464;28;20062;-84
2021/05/21 06:51:00;;;;;;;25.05;3.72;;;11.50;99.90;;;;;;5085162;28;20040;-84
2021/05/21 06:53:27;;;;;;;23.00;4.10;;;11.50;99.90;;;;;;5069065;28;20071;-85
2021/05/21 06:55:53;;;;;;;20.50;2.92;;;11.60;99.90;;;;;;5057584;28;20039;-84
2021/05/21 06:58:19;;;;;;;32.85;4.68;;;11.70;99.90;;;;;;5054742;28;20097;-84
2021/05/21 07:00:47;;;;;;;22.50;4.40;;;11.70;99.90;;;;;;5087213;28;20044;-84
2021/05/21 07:03:13;;;;;;;21.55;4.03;;;11.80;99.90;;;;;;5054115;28;20043;-85
2021/05/21 07:05:40;;;;;;;25.23;4.00;;;11.80;99.90;;;;;;5070814;28;20560;-84
2021/05/21 07:08:07;;;;;;;19.42;3.55;;;11.90;99.90;;;;;;5051038;28;20048;-84
2021/05/21 07:10:33;;;;;;;31.88;5.25;;;12.00;99.90;;;;;;5087160;28;20525;-85
2021/05/21 07:13:06;;;;;;;26.50;4.63;;;12.00;99.90;;;;;;5070673;28;20043;-84
2021/05/21 07:15:32;;;;;;;26.25;3.65;;;11.80;99.90;;;;;;5070161;28;20058;-85
2021/05/21 07:17:58;;;;;;;25.10;5.57;;;11.70;99.90;;;;;;5070764;28;20558;-85
2021/05/21 07:20:24;;;;;;;24.63;4.80;;;11.50;99.90;;;;;;5070768;28;20119;-84
2021/05/21 07:22:50;;;;;;;26.70;4.28;;;11.40;99.90;;;;;;5059558;28;20040;-84
2021/05/21 07:25:15;;;;;;;29.48;4.15;;;11.30;99.90;;;;;;5029920;28;20468;-86
2021/05/21 07:27:41;;;;;;;37.15;5.45;;;11.20;99.90;;;;;;5033352;28;20064;-85
2021/05/21 07:30:08;;;;;;;29.92;4.32;;;11.10;99.90;;;;;;5063349;28;20036;-86
2021/05/21 07:32:33;;;;;;;28.23;3.95;;;11.00;99.90;;;;;;5071343;28;20089;-85
2021/05/21 07:35:00;;;;;;;33.28;4.57;;;10.90;99.90;;;;;;5053744;28;20032;-85
2021/05/21 07:37:28;;;;;;;29.15;5.13;;;10.90;99.90;;;;;;5087746;28;20028;-86
2021/05/21 07:39:54;;;;;;;35.22;6.13;;;10.90;99.90;;;;;;5065853;28;20060;-85
2021/05/21 07:42:20;;;;;;;27.85;4.63;;;10.90;99.90;;;;;;5033513;28;20048;-86
2021/05/21 07:44:45;;;;;;;26.15;4.47;;;11.00;99.90;;;;;;5031945;28;20690;-87
2021/05/21 07:47:11;;;;;;;29.58;4.43;;;11.00;99.90;;;;;;5037800;28;20043;-86
2021/05/21 07:49:37;;;;;;;31.17;4.75;;;11.00;99.90;;;;;;5053783;28;20032;-87
2021/05/21 07:52:03;;;;;;;39.17;5.05;;;11.10;99.90;;;;;;5059472;28;20051;-87
2021/05/21 07:54:29;;;;;;;21.52;3.65;;;11.10;99.90;;;;;;5069914;28;20113;-86
2021/05/21 07:56:55;;;;;;;29.40;4.78;;;11.10;99.90;;;;;;5071168;28;20897;-87
2021/05/21 07:59:20;;;;;;;22.77;3.83;;;11.20;99.90;;;;;;5049112;28;20119;-87
2021/05/21 08:01:46;;;;;;;23.42;3.50;;;11.30;99.90;;;;;;5031910;28;20036;-87
2021/05/21 08:04:12;;;;;;;26.00;4.25;;;11.20;99.90;;;;;;5049553;28;20094;-87
2021/05/21 08:06:40;;;;;;;29.50;4.30;;;11.30;99.90;;;;;;5055829;28;20040;-88
2021/05/21 08:09:06;;;;;;;36.40;4.95;;;11.20;99.90;;;;;;5079236;28;20056;-87
2021/05/21 08:11:33;;;;;;;22.60;3.30;;;11.20;99.90;;;;;;5069055;28;20495;-87
2021/05/21 08:13:59;;;;;;;21.60;3.53;;;11.10;99.90;;;;;;5073686;28;20034;-87
2021/05/21 08:16:28;;;;;;;24.70;4.32;;;11.10;99.90;;;;;;5095738;28;20029;-88
2021/05/21 08:18:57;;;;;;;31.35;4.47;;;11.10;99.90;;;;;;5074858;28;20101;-86
2021/05/21 08:21:25;;;;;;;23.70;3.85;;;11.10;99.90;;;;;;5075324;28;20483;-87
2021/05/21 08:23:51;;;;;;;25.00;3.45;;;11.10;99.90;;;;;;5035408;28;20041;-87
2021/05/21 08:26:17;;;;;;;22.35;3.97;;;11.10;99.90;;;;;;5071918;28;20051;-87
2021/05/21 08:28:43;;;;;;;27.17;4.82;;;11.10;99.90;;;;;;5071864;28;20627;-87
2021/05/21 08:31:10;;;;;;;29.30;6.32;;;11.20;99.90;;;;;;5067404;28;20060;-87
2021/05/21 08:33:43;;;;;;;24.38;4.63;;;11.20;99.90;;;;;;5059560;28;20054;-87
2021/05/21 08:36:10;;;;;;;26.55;3.88;;;11.20;99.90;;;;;;5075015;28;20589;-87
2021/05/21 08:38:37;;;;;;;30.27;4.63;;;11.30;99.90;;;;;;5068566;28;20056;-87
2021/05/21 08:41:05;;;;;;;28.02;5.10;;;11.30;99.90;;;;;;5062792;28;20050;-86
2021/05/21 08:43:32;;;;;;;23.60;5.13;;;11.40;99.90;;;;;;5086776;28;20048;-88
2021/05/21 08:45:58;;;;;;;19.73;4.80;;;11.50;99.90;;;;;;5071913;28;20495;-86
2021/05/21 08:48:26;;;;;;;23.80;4.10;;;11.60;99.90;;;;;;5055966;28;20095;-87
2021/05/21 08:50:52;;;;;;;25.92;4.18;;;11.60;99.90;;;;;;5054668;28;20028;-87
2021/05/21 08:53:17;;;;;;;32.80;4.80;;;11.70;99.90;;;;;;5074158;28;20044;-87
2021/05/21 08:55:43;;;;;;;24.30;4.32;;;11.70;99.90;;;;;;5073194;28;20036;-85
2021/05/21 08:58:11;;;;;;;19.52;3.67;;;11.70;99.90;;;;;;5073754;28;20051;-87
2021/05/21 09:00:40;;;;;;;23.60;3.42;;;11.70;99.90;;;;;;5083302;28;20036;-87
2021/05/21 09:03:26;;;;;;;27.10;5.80;;;11.70;99.90;;;;;;5072615;28;20027;-87
2021/05/21 09:06:23;;;;;;;26.88;3.95;;;11.60;99.90;;;;;;5072486;28;20047;-86
2021/05/21 09:08:54;;;;;;;30.33;5.82;;;11.50;99.90;;;;;;5077658;28;20486;-88
2021/05/21 09:11:25;;;;;;;23.58;4.05;;;11.40;99.90;;;;;;5080762;28;20035;-87
2021/05/21 09:13:56;;;;;;;22.10;3.70;;;11.40;99.90;;;;;;5082199;28;20051;-86
2021/05/21 09:16:24;;;;;;;20.58;3.45;;;11.40;99.90;;;;;;5081372;28;20038;-87
2021/05/21 09:19:09;;;;;;;26.15;4.88;;;11.30;99.90;;;;;;5066949;28;20040;-87
2021/05/21 09:21:56;;;;;;;24.90;4.10;;;11.30;99.90;;;;;;5061463;28;20040;-87
2021/05/21 09:24:45;;;;;;;22.52;3.53;;;11.30;99.90;;;;;;5073102;28;20032;-87
2021/05/21 09:27:13;;;;;;;18.17;3.50;;;11.30;99.90;;;;;;5072308;28;20036;-87
2021/05/21 09:29:47;;;;;;;20.73;4.15;;;11.40;99.90;;;;;;5054718;28;20486;-87
2021/05/21 09:32:27;;;;;;;22.88;3.42;;;11.50;99.90;;;;;;5091121;28;20541;-87
2021/05/21 09:35:12;;;;;;;34.30;4.88;;;11.70;99.90;;;;;;5072619;28;20032;-87
2021/05/21 09:37:47;;;;;;;29.33;4.43;;;11.80;99.90;;;;;;5072621;28;20032;-87
2021/05/21 09:40:15;;;;;;;23.95;4.68;;;12.00;99.90;;;;;;5051920;28;20049;-87
2021/05/21 09:42:47;;;;;;;24.73;5.45;;;12.10;99.90;;;;;;5069174;28;20492;-87
2021/05/21 09:45:34;;;;;;;25.88;3.55;;;12.30;99.90;;;;;;5070924;28;20051;-87
2021/05/21 09:48:03;;;;;;;25.65;4.85;;;12.40;99.90;;;;;;5069524;28;20044;-87
2021/05/21 09:50:50;;;;;;;25.00;4.43;;;12.30;99.90;;;;;;5066284;28;20065;-86
2021/05/21 09:53:21;;;;;;;25.88;4.57;;;12.30;99.90;;;;;;5055872;28;20512;-86
2021/05/21 09:56:00;;;;;;;21.77;4.57;;;12.20;99.90;;;;;;5046061;28;20041;-87
2021/05/21 09:58:36;;;;;;;23.33;3.80;;;12.20;99.90;;;;;;5066494;28;20760;-87
2021/05/21 10:01:24;;;;;;;25.20;4.63;;;12.10;99.90;;;;;;5070210;28;20043;-86
2021/05/21 10:03:55;;;;;;;24.42;3.60;;;12.10;99.90;;;;;;5070848;28;20052;-86
2021/05/21 10:06:23;;;;;;;20.10;3.28;;;12.10;99.90;;;;;;5070288;28;20048;-87
2021/05/21 10:08:49;;;;;;;27.35;3.50;;;12.10;99.90;;;;;;5052798;28;20032;-87
2021/05/21 10:11:17;;;;;;;22.58;4.40;;;12.10;99.90;;;;;;5051110;28;20476;-87
2021/05/21 10:13:47;;;;;;;26.60;4.13;;;12.10;99.90;;;;;;5053423;28;20113;-87
2021/05/21 10:16:16;;;;;;;20.33;3.92;;;12.20;99.90;;;;;;5069187;28;20044;-86
2021/05/21 10:18:47;;;;;;;20.08;3.72;;;12.30;99.90;;;;;;5068420;28;20036;-87
2021/05/21 10:21:14;;;;;;;23.80;5.13;;;12.40;99.90;;;;;;5071051;28;20047;-86
2021/05/21 10:23:45;;;;;;;18.58;3.78;;;12.50;99.90;;;;;;5080777;28;20047;-87
2021/05/21 10:26:17;;;;;;;30.02;3.15;;;12.70;99.90;;;;;;5067947;28;20090;-87
2021/05/21 10:28:46;;;;;;;20.08;4.63;;;12.90;99.90;;;;;;5068269;28;20495;-86
2021/05/21 10:31:14;;;;;;;18.30;4.00;;;13.00;99.90;;;;;;5069794;28;20506;-86
2021/05/21 10:33:46;;;;;;;16.92;3.58;;;13.00;99.90;;;;;;5053320;28;20052;-87
2021/05/21 10:36:28;;;;;;;23.92;4.00;;;13.00;99.90;;;;;;5054231;28;20047;-86
2021/05/21 10:39:11;;;;;;;;;;;12.70;99.90;;;;;;5095839;28;20072;-87
2021/05/21 10:41:57;;;;;;;11.63;2.83;;;12.20;99.90;;;;;;5068548;28;20026;-86
2021/05/21 10:44:28;;;;;;;20.73;3.83;;;11.80;99.90;;;;;;5068795;28;20040;-87
2021/05/21 10:47:16;;;;;;;24.08;3.60;;;11.60;99.90;;;;;;5060890;28;20032;-86
2021/05/21 10:49:51;;;;;;;17.27;3.30;;;11.50;99.90;;;;;;5067247;28;20123;-87
2021/05/21 10:52:21;;;;;;;19.80;3.38;;;11.50;99.90;;;;;;5074981;28;20044;-86
2021/05/21 10:54:51;;;;;;;19.35;3.90;;;11.40;99.90;;;;;;5049127;28;20040;-86
2021/05/21 10:57:23;;;;;;;23.40;4.25;;;11.30;99.90;;;;;;5076852;28;20036;-87
2021/05/21 10:59:55;;;;;;;23.63;5.72;;;11.30;99.90;;;;;;5082116;28;20040;-87
2021/05/21 11:02:41;;;;;;;20.20;3.80;;;11.20;99.90;;;;;;5073875;28;20536;-88
2021/05/21 11:05:24;;;;;;;32.65;6.55;;;11.20;99.90;;;;;;5055980;28;20922;-87
2021/05/21 11:08:02;;;;;;;25.85;4.35;;;11.20;99.90;;;;;;5069944;28;20048;-87
2021/05/21 11:10:34;;;;;;;28.20;3.92;;;11.30;99.90;;;;;;5051166;28;20052;-87
2021/05/21 11:13:12;;;;;;;24.25;3.80;;;11.40;99.90;;;;;;5078118;28;20074;-87
2021/05/21 11:15:42;;;;;;;23.90;4.03;;;11.50;99.90;;;;;;5057127;28;20033;-87
2021/05/21 11:18:18;;;;;;;21.02;3.70;;;11.70;99.90;;;;;;5067875;28;20144;-85
2021/05/21 11:20:55;;;;;;;23.45;4.70;;;11.90;99.90;;;;;;5076482;28;20044;-87
2021/05/21 11:23:33;;;;;;;28.40;5.00;;;11.90;99.90;;;;;;5076927;28;20036;-87
2021/05/21 11:26:14;;;;;;;26.27;4.25;;;11.90;99.90;;;;;;5075721;28;20470;-87
2021/05/21 11:28:50;;;;;;;28.17;4.45;;;11.90;99.90;;;;;;5068158;28;20044;-87
2021/05/21 11:31:22;;;;;;;26.98;4.38;;;11.80;99.90;;;;;;5090780;28;20037;-87
2021/05/21 11:33:51;;;;;;;;;;;11.40;99.90;;;;;;5079230;28;20039;-87
2021/05/21 11:36:18;;;;;;;22.92;3.22;;;11.30;99.90;;;;;;5061343;28;19916;-87
2021/05/21 11:38:43;;;;;;;27.20;4.60;;;11.10;99.90;;;;;;5079786;28;20044;-87
2021/05/21 11:41:11;;;;;;;28.30;5.68;;;11.00;99.90;;;;;;5048802;28;20511;-87
2021/05/21 11:43:43;;;;;;;23.58;4.00;;;11.00;99.90;;;;;;5076909;28;20043;-87
2021/05/21 11:46:15;;;;;;;18.75;4.10;;;11.00;99.90;;;;;;5089374;28;20052;-88
2021/05/21 11:48:42;;;;;;;31.48;4.68;;;11.10;99.90;;;;;;5077513;28;20035;-87
2021/05/21 11:51:19;;;;;;;17.45;3.67;;;11.20;99.90;;;;;;5054748;28;20036;-87
2021/05/21 11:54:03;;;;;;;22.25;3.83;;;11.30;99.90;;;;;;5056934;28;20491;-87
2021/05/21 11:56:36;;;;;;;22.20;4.20;;;11.40;99.90;;;;;;5064498;28;20048;-87
2021/05/21 11:59:18;;;;;;;29.40;5.13;;;11.50;99.90;;;;;;5089024;28;20507;-87
2021/05/21 12:01:55;;;;;;;17.55;3.28;;;11.50;99.90;;;;;;5071618;28;20040;-87
2021/05/21 12:04:27;;;;;;;17.45;3.10;;;11.50;99.90;;;;;;5103707;28;20035;-87
2021/05/21 12:06:53;;;;;;;14.70;3.22;;;11.50;99.90;;;;;;5089898;28;20106;-88
2021/05/21 12:09:20;;;;;;;14.75;2.78;;;11.50;99.90;;;;;;5051555;28;20782;-87
2021/05/21 12:11:48;;;;;;;21.05;3.33;;;11.50;99.90;;;;;;5086172;28;20047;-87
2021/05/21 12:14:17;;;;;;;24.65;2.60;;;11.50;99.90;;;;;;5055006;28;20032;-86
2021/05/21 12:16:45;;;;;;;19.58;2.60;;;11.50;99.90;;;;;;5071596;28;20039;-87
2021/05/21 12:19:13;;;;;;;19.40;3.35;;;11.50;99.90;;;;;;5070399;28;20815;-87
2021/05/21 12:21:47;;;;;;;20.20;2.97;;;11.50;99.90;;;;;;5093167;28;20039;-87
2021/05/21 12:24:16;;;;;;;21.65;2.83;;;11.50;99.90;;;;;;5075737;28;20563;-86
2021/05/21 12:26:44;;;;;;;22.23;3.60;;;11.50;99.90;;;;;;5074789;28;20039;-86
2021/05/21 12:29:12;;;;;;;16.35;2.38;;;11.70;99.90;;;;;;5075533;28;20126;-86
2021/05/21 12:31:44;;;;;;;21.73;2.40;;;11.70;99.90;;;;;;5075369;28;20059;-87
2021/05/21 12:34:09;;;;;;;26.73;3.95;;;11.80;99.90;;;;;;5074739;28;20036;-86
2021/05/21 12:36:35;;;;;;;14.48;2.20;;;11.80;99.90;;;;;;5075716;28;20047;-86
2021/05/21 12:39:07;;;;;;;21.23;2.78;;;11.80;99.90;;;;;;5074619;28;20503;-87
2021/05/21 12:41:39;;;;;;;13.68;2.53;;;11.80;99.90;;;;;;5055681;28;20115;-86
2021/05/21 12:44:20;;;;;;;15.50;2.50;;;11.80;99.90;;;;;;5071839;28;20127;-86
2021/05/21 12:46:45;;;;;;;12.32;2.88;;;11.80;99.90;;;;;;5089874;28;20036;-86